createdAt,value
2023-05-16T00:00:24.703Z,88.7
2023-05-16T00:12:24.569Z,88.4
2023-05-16T00:24:24.528Z,89.3
2023-05-16T00:36:24.516Z,90.4
2023-05-16T00:48:24.535Z,92.4
2023-05-16T01:00:24.709Z,93.5
2023-05-16T01:12:24.427Z,94.4
2023-05-16T01:24:24.539Z,94.5
2023-05-16T01:36:24.419Z,95.4
2023-05-16T01:48:24.431Z,96.3
2023-05-16T02:00:24.478Z,96.9
2023-05-16T02:12:24.422Z,97.6
2023-05-16T02:24:24.547Z,97.6
2023-05-16T02:36:24.441Z,97.2
2023-05-16T02:48:24.430Z,97.6
2023-05-16T03:00:24.548Z,97.6
2023-05-16T03:12:24.457Z,97.5
2023-05-16T03:24:24.549Z,97.5
2023-05-16T03:36:24.459Z,97.5
2023-05-16T03:48:24.426Z,97.5
2023-05-16T04:00:24.623Z,97.0
2023-05-16T04:12:24.597Z,96.6
2023-05-16T04:24:24.493Z,95.4
2023-05-16T04:36:24.436Z,96.1
2023-05-16T04:48:24.438Z,97.0
2023-05-16T05:00:24.600Z,97.4
2023-05-16T05:12:24.581Z,96.8
2023-05-16T05:24:24.540Z,95.5
2023-05-16T05:36:24.530Z,95.8
2023-05-16T05:48:24.421Z,95.0
2023-05-16T06:00:24.508Z,95.3
2023-05-16T06:12:24.587Z,94.7
2023-05-16T06:24:24.432Z,93.5
2023-05-16T06:36:24.517Z,93.0
2023-05-16T06:48:24.504Z,91.8
2023-05-16T07:00:24.437Z,90.9
2023-05-16T07:12:24.491Z,91.3
2023-05-16T07:24:24.434Z,91.7
2023-05-16T07:36:24.553Z,90.8
2023-05-16T07:48:24.431Z,89.2
2023-05-16T08:00:24.486Z,86.3
2023-05-16T08:12:24.504Z,81.4
2023-05-16T08:24:24.538Z,75.5
2023-05-16T08:36:24.548Z,78.2
2023-05-16T08:48:24.679Z,73.0
2023-05-16T09:00:24.445Z,68.5
2023-05-16T09:12:24.547Z,70.2
2023-05-16T09:24:24.540Z,67.4
2023-05-16T09:36:24.441Z,62.3
2023-05-16T09:48:24.525Z,63.9
2023-05-16T10:00:24.440Z,61.8
2023-05-16T10:12:24.426Z,59.0
2023-05-16T10:24:24.456Z,58.0
2023-05-16T10:36:24.566Z,52.8
2023-05-16T10:48:24.471Z,55.3
2023-05-16T11:00:24.508Z,51.6
2023-05-16T11:12:24.424Z,49.9
2023-05-16T11:24:24.666Z,51.6
2023-05-16T11:36:24.424Z,51.9
2023-05-16T11:48:35.635Z,51.5
2023-05-16T12:00:24.543Z,52.4
2023-05-16T12:12:24.528Z,47.3
2023-05-16T12:24:24.417Z,47.6
2023-05-16T12:36:24.545Z,49.4
2023-05-16T12:48:24.434Z,47.0
2023-05-16T13:00:24.540Z,50.0
2023-05-16T13:12:24.474Z,48.8
2023-05-16T13:24:24.473Z,46.7
2023-05-16T13:36:24.548Z,48.1
2023-05-16T13:48:24.545Z,49.3
2023-05-16T14:12:24.437Z,48.1
2023-05-16T14:24:24.496Z,48.3
2023-05-16T14:36:24.432Z,49.7
2023-05-16T14:48:24.486Z,52.4
2023-05-16T15:00:24.548Z,49.8
2023-05-16T15:12:24.485Z,49.9
2023-05-16T15:24:24.527Z,49.1
2023-05-16T15:36:24.518Z,51.2
2023-05-16T15:48:24.545Z,51.9
2023-05-16T16:00:24.514Z,54.8
2023-05-16T16:12:24.462Z,55.1
2023-05-16T16:24:24.425Z,54.6
2023-05-16T16:36:24.546Z,54.0
2023-05-16T16:48:24.436Z,53.6
2023-05-16T17:00:24.549Z,53.7
2023-05-16T17:12:24.435Z,54.7
2023-05-16T17:24:24.490Z,52.0
2023-05-16T17:36:24.543Z,52.5
2023-05-16T17:48:24.515Z,52.2
2023-05-16T18:00:24.444Z,52.4
2023-05-16T18:12:24.434Z,56.2
2023-05-16T18:24:24.431Z,57.9
2023-05-16T18:36:24.433Z,59.0
2023-05-16T18:48:24.557Z,61.3
2023-05-16T19:00:24.544Z,61.8
2023-05-16T19:12:24.439Z,62.9
2023-05-16T19:24:24.446Z,63.4
2023-05-16T19:36:24.463Z,64.4
2023-05-16T19:48:24.690Z,65.4
2023-05-16T20:00:24.452Z,66.6
2023-05-16T20:12:24.549Z,68.5
2023-05-16T20:24:24.559Z,69.0
2023-05-16T20:36:24.521Z,69.5
2023-05-16T20:48:24.599Z,70.6
2023-05-16T21:00:24.542Z,70.7
2023-05-16T21:12:24.510Z,71.1
2023-05-16T21:24:24.504Z,71.2
2023-05-16T21:36:24.542Z,72.5
2023-05-16T21:48:24.554Z,73.1
2023-05-16T22:00:24.434Z,73.7
2023-05-16T22:12:24.497Z,73.9
2023-05-16T22:24:24.534Z,75.4
2023-05-16T22:36:24.572Z,76.1
2023-05-16T22:48:24.594Z,77.6
2023-05-16T23:00:25.466Z,78.2
2023-05-16T23:12:24.534Z,78.6
2023-05-16T23:24:24.512Z,79.2
2023-05-16T23:36:24.642Z,79.0
2023-05-16T23:48:24.501Z,80.8
